Time;durP1;ratioP1;P1;durP2;ratioP2;P2;SDS_P1;SDS_P2;PMS_P1;PMS_P2;Temp;Humidity;BMP_temperature;BMP_pressure;BME280_temperature;BME280_humidity;BME280_pressure;Samples;Min_cycle;Max_cycle;Signal;HPM_P1;HPM_P2
2023/08/24 00:00:11;;;;;;;8.68;5.97;;;;;;;14.24;96.48;98636.06;4859318;29;20050;-57
2023/08/24 00:02:37;;;;;;;8.82;5.82;;;;;;;14.31;95.28;98640.00;4859130;29;20193;-57
2023/08/24 00:05:03;;;;;;;7.50;6.20;;;;;;;14.32;95.54;98646.13;4858962;29;20045;-57
2023/08/24 00:07:29;;;;;;;8.27;6.28;;;;;;;14.35;94.68;98644.75;4859028;29;20052;-57
2023/08/24 00:09:55;;;;;;;9.18;6.88;;;;;;;14.36;94.80;98646.38;4858922;29;20041;-58
2023/08/24 00:12:20;;;;;;;10.32;7.47;;;;;;;14.41;94.51;98647.13;4857269;29;20076;-58
2023/08/24 00:14:46;;;;;;;10.18;7.65;;;;;;;14.47;94.25;98650.50;4859406;29;20053;-56
2023/08/24 00:17:12;;;;;;;10.52;7.88;;;;;;;14.50;93.83;98648.09;4857597;29;20050;-58
2023/08/24 00:19:38;;;;;;;11.95;9.00;;;;;;;14.50;93.94;98650.78;4857599;29;20045;-59
2023/08/24 00:22:04;;;;;;;11.23;7.80;;;;;;;14.54;93.71;98657.16;4857687;29;20046;-58
2023/08/24 00:24:29;;;;;;;11.23;7.75;;;;;;;14.51;93.34;98660.38;4858783;29;20042;-58
2023/08/24 00:26:55;;;;;;;11.05;8.07;;;;;;;14.54;93.96;98670.50;4858875;29;20503;-58
2023/08/24 00:29:21;;;;;;;9.25;6.43;;;;;;;14.55;93.67;98668.63;4858688;29;20053;-58
2023/08/24 00:31:48;;;;;;;10.27;6.78;;;;;;;14.55;93.60;98668.63;4858693;29;20476;-56
2023/08/24 00:34:14;;;;;;;8.57;5.45;;;;;;;14.49;93.34;98670.50;4857448;29;20045;-58
2023/08/24 00:36:40;;;;;;;6.22;4.68;;;;;;;14.43;94.26;98668.94;4857269;29;20048;-58
2023/08/24 00:39:06;;;;;;;6.10;4.30;;;;;;;14.35;94.95;98656.22;4858713;29;20089;-59
2023/08/24 00:41:32;;;;;;;7.13;5.03;;;;;;;14.35;95.60;98666.09;4846584;29;20133;-58
2023/08/24 00:43:57;;;;;;;6.63;5.03;;;;;;;14.36;95.84;98662.38;4857275;29;20052;-57
2023/08/24 00:46:26;;;;;;;6.53;4.78;;;;;;;14.32;95.86;98662.09;4858546;29;20053;-59
2023/08/24 00:48:56;;;;;;;6.10;5.05;;;;;;;14.32;96.17;98662.09;4857184;29;20053;-56
2023/08/24 00:51:24;;;;;;;7.47;5.47;;;;;;;14.32;96.14;98667.44;4857467;29;20528;-56
2023/08/24 00:53:50;;;;;;;11.70;5.47;;;;;;;14.35;96.29;98661.56;4858407;29;20105;-58
2023/08/24 00:56:15;;;;;;;9.07;5.53;;;;;;;14.32;96.72;98664.78;4859615;29;20132;-58
2023/08/24 00:58:41;;;;;;;9.73;5.82;;;;;;;14.29;96.89;98665.34;4860535;29;20140;-57
2023/08/24 01:01:07;;;;;;;8.30;5.35;;;;;;;14.25;97.32;98662.44;4861682;29;20098;-58
2023/08/24 01:03:33;;;;;;;8.55;5.22;;;;;;;14.24;97.59;98665.41;4860300;29;20084;-57
2023/08/24 01:05:58;;;;;;;6.85;5.22;;;;;;;14.23;98.12;98661.91;4861594;29;20041;-58
2023/08/24 01:08:24;;;;;;;5.88;4.70;;;;;;;14.18;97.66;98666.50;4861849;29;20081;-56
2023/08/24 01:11:09;;;;;;;7.10;4.97;;;;;;;14.22;97.86;98668.31;4860326;29;20046;-58
2023/08/24 01:13:41;;;;;;;6.93;4.80;;;;;;;14.15;98.67;98662.53;4845112;29;20351;-57
2023/08/24 01:16:17;;;;;;;7.40;4.22;;;;;;;14.18;98.43;98659.31;4861394;29;20045;-58
2023/08/24 01:18:43;;;;;;;7.57;5.30;;;;;;;14.13;98.63;98658.56;4860420;29;20059;-57
2023/08/24 01:21:09;;;;;;;6.45;4.97;;;;;;;14.10;98.76;98662.56;4844996;29;20057;-57
2023/08/24 01:23:45;;;;;;;6.05;4.88;;;;;;;14.09;99.30;98666.31;4844882;29;20042;-55
2023/08/24 01:26:19;;;;;;;6.53;5.20;;;;;;;13.99;99.03;98658.38;4860333;29;20085;-58
2023/08/24 01:28:46;;;;;;;7.70;4.30;;;;;;;13.95;97.75;98666.13;4861814;29;20358;-58
2023/08/24 01:31:15;;;;;;;6.07;4.80;;;;;;;13.87;98.78;98658.72;4861564;29;20076;-58
2023/08/24 01:33:41;;;;;;;5.15;4.05;;;;;;;14.00;98.48;98679.44;4844675;29;20057;-58
2023/08/24 01:36:08;;;;;;;5.70;3.95;;;;;;;14.03;98.43;98676.22;4861111;29;20046;-58
2023/08/24 01:38:34;;;;;;;6.65;4.38;;;;;;;14.04;98.38;98679.66;4861405;29;20112;-57
2023/08/24 01:41:03;;;;;;;6.55;4.50;;;;;;;14.02;98.17;98671.13;4861025;29;20555;-58
2023/08/24 01:43:30;;;;;;;5.80;5.05;;;;;;;13.99;98.60;98682.34;4859184;29;20201;-57
2023/08/24 01:45:58;;;;;;;6.45;5.07;;;;;;;13.93;98.74;98683.47;4844491;29;20065;-58
2023/08/24 01:48:24;;;;;;;9.43;5.90;;;;;;;13.90;98.36;98676.81;4859879;29;20045;-57
2023/08/24 01:50:50;;;;;;;6.35;4.88;;;;;;;13.91;98.86;98678.41;4844614;29;20046;-56
2023/08/24 01:53:16;;;;;;;7.15;5.22;;;;;;;13.87;98.05;98680.03;4859709;29;20086;-58
2023/08/24 01:55:41;;;;;;;7.40;4.90;;;;;;;13.86;98.12;98684.56;4859448;29;20053;-59
2023/08/24 01:58:08;;;;;;;9.50;4.93;;;;;;;13.86;98.27;98684.56;4875145;29;20057;-57
2023/08/24 02:00:33;;;;;;;5.30;3.67;;;;;;;13.86;96.44;98679.25;4859505;29;20572;-58
2023/08/24 02:03:00;;;;;;;4.85;4.30;;;;;;;13.83;96.81;98687.00;4859425;29;20158;-59
2023/08/24 02:05:27;;;;;;;5.22;3.90;;;;;;;13.82;96.59;98683.53;4859375;29;20170;-59
2023/08/24 02:07:54;;;;;;;5.85;3.88;;;;;;;13.84;96.29;98677.91;4859184;29;20049;-58
2023/08/24 02:10:19;;;;;;;7.90;3.92;;;;;;;13.83;96.27;98679.00;4843929;29;20078;-59
2023/08/24 02:12:45;;;;;;;6.18;4.22;;;;;;;13.77;96.96;98672.13;4860152;29;20057;-58
2023/08/24 02:15:11;;;;;;;7.10;4.82;;;;;;;13.82;97.59;98675.53;4843880;29;20423;-59
2023/08/24 02:17:37;;;;;;;7.50;5.15;;;;;;;13.80;97.66;98683.00;4858901;29;20072;-54
2023/08/24 02:20:03;;;;;;;7.82;5.30;;;;;;;13.76;97.37;98673.16;4859169;29;20132;-60
2023/08/24 02:22:30;;;;;;;7.93;4.97;;;;;;;13.77;98.18;98678.22;4859040;29;20057;-56
2023/08/24 02:24:56;;;;;;;8.30;5.68;;;;;;;13.73;98.13;98666.50;4859300;29;20056;-57
2023/08/24 02:27:22;;;;;;;7.07;5.30;;;;;;;13.78;98.06;98681.69;4828554;29;20053;-57
2023/08/24 02:29:47;;;;;;;6.30;5.25;;;;;;;13.78;98.09;98679.81;4860261;29;20412;-58
2023/08/24 02:32:15;;;;;;;6.50;4.63;;;;;;;13.75;97.71;98685.69;4858798;29;20140;-58
2023/08/24 02:34:41;;;;;;;7.93;5.18;;;;;;;13.71;96.96;98687.31;4860074;29;20052;-58
2023/08/24 02:37:07;;;;;;;8.85;4.57;;;;;;;13.70;97.58;98677.72;4860052;29;20054;-58
2023/08/24 02:39:32;;;;;;;6.68;4.97;;;;;;;13.73;97.46;98679.03;4860035;29;20538;-59
2023/08/24 02:41:58;;;;;;;7.63;5.35;;;;;;;13.68;97.22;98673.75;4858582;29;20052;-57
2023/08/24 02:44:24;;;;;;;6.35;5.30;;;;;;;13.76;97.16;98681.16;4828272;29;20050;-60
2023/08/24 02:46:49;;;;;;;6.60;5.10;;;;;;;13.75;97.00;98680.38;4860071;29;20049;-56
2023/08/24 02:49:17;;;;;;;6.30;5.18;;;;;;;13.71;96.89;98686.53;4858977;29;20506;-58
2023/08/24 02:51:43;;;;;;;7.35;5.40;;;;;;;13.69;97.36;98681.47;4843039;29;20043;-58
2023/08/24 02:54:09;;;;;;;7.63;5.60;;;;;;;13.66;97.61;98684.69;4858621;29;20045;-60
2023/08/24 02:56:34;;;;;;;10.70;5.57;;;;;;;13.69;97.97;98689.47;4859525;29;20592;-58
2023/08/24 02:59:00;;;;;;;6.95;5.32;;;;;;;13.71;97.79;98690.00;4860017;29;20574;-59
2023/08/24 03:01:26;;;;;;;8.60;5.90;;;;;;;13.71;97.71;98694.53;4858218;29;20532;-57
2023/08/24 03:03:52;;;;;;;8.13;5.65;;;;;;;13.73;96.93;98695.03;4859571;29;20061;-58
2023/08/24 03:06:17;;;;;;;6.57;5.25;;;;;;;13.74;97.28;98689.44;4858588;29;20089;-60
2023/08/24 03:08:44;;;;;;;5.82;4.65;;;;;;;13.73;96.89;98700.34;4859856;29;20148;-57
2023/08/24 03:11:11;;;;;;;10.38;5.80;;;;;;;13.73;97.19;98695.81;4858272;29;20049;-57
2023/08/24 03:13:40;;;;;;;8.30;5.68;;;;;;;13.72;97.12;98694.22;4858043;29;20129;-57
2023/08/24 03:16:07;;;;;;;6.85;5.60;;;;;;;13.74;96.59;98689.44;4843332;29;20132;-57
2023/08/24 03:18:33;;;;;;;7.30;5.40;;;;;;;13.75;96.97;98691.03;4857836;29;20049;-57
2023/08/24 03:20:59;;;;;;;11.25;5.65;;;;;;;13.78;96.93;98695.78;4858455;29;20048;-58
2023/08/24 03:23:25;;;;;;;7.68;5.68;;;;;;;13.73;97.12;98692.34;4858166;29;20053;-57
2023/08/24 03:25:51;;;;;;;6.78;5.53;;;;;;;13.73;96.74;98695.81;4859233;29;20076;-61
2023/08/24 03:28:16;;;;;;;8.32;5.93;;;;;;;13.72;96.92;98702.22;4857956;29;20056;-59
2023/08/24 03:30:48;;;;;;;7.55;5.53;;;;;;;13.78;97.08;98706.44;4857689;29;20131;-60
2023/08/24 03:33:13;;;;;;;9.23;5.82;;;;;;;13.86;96.11;98705.09;4858019;29;20096;-58
2023/08/24 03:35:40;;;;;;;7.93;5.82;;;;;;;13.88;95.99;98702.91;4857901;29;20080;-58
2023/08/24 03:38:07;;;;;;;7.70;5.63;;;;;;;13.88;95.43;98702.13;4858074;29;20519;-57
2023/08/24 03:40:33;;;;;;;12.05;6.88;;;;;;;13.90;95.41;98702.66;4842646;29;20129;-57
2023/08/24 03:42:58;;;;;;;11.55;6.13;;;;;;;13.91;95.34;98702.38;4842499;29;20136;-55
2023/08/24 03:45:24;;;;;;;8.63;6.40;;;;;;;13.90;94.82;98695.47;4857833;29;20053;-59
2023/08/24 03:47:51;;;;;;;8.20;6.35;;;;;;;13.94;95.27;98699.19;4859292;29;20053;-60
2023/08/24 03:50:16;;;;;;;10.10;6.65;;;;;;;13.95;94.16;98699.97;4859413;29;20053;-59
2023/08/24 03:52:42;;;;;;;9.90;6.45;;;;;;;14.00;94.47;98699.91;4873241;29;20093;-57
2023/08/24 03:55:08;;;;;;;9.70;6.60;;;;;;;14.05;94.28;98705.22;4857736;29;20045;-58
2023/08/24 03:57:34;;;;;;;9.90;5.75;;;;;;;14.06;94.05;98702.31;4859029;29;20081;-57
2023/08/24 04:00:04;;;;;;;7.22;5.25;;;;;;;14.03;94.25;98713.50;4857655;29;20050;-57
2023/08/24 04:02:39;;;;;;;7.80;5.53;;;;;;;14.02;93.45;98711.91;4859014;29;20057;-58
2023/08/24 04:05:05;;;;;;;9.00;5.47;;;;;;;14.03;94.04;98704.69;4858853;29;20053;-59
2023/08/24 04:07:31;;;;;;;6.72;5.47;;;;;;;14.09;94.02;98706.28;4858918;29;20512;-59
2023/08/24 04:09:57;;;;;;;9.70;5.72;;;;;;;14.15;93.87;98712.34;4858882;29;20049;-58
2023/08/24 04:12:23;;;;;;;6.93;5.60;;;;;;;14.18;93.37;98704.63;4857192;29;20065;-58
2023/08/24 04:14:49;;;;;;;7.22;5.35;;;;;;;14.15;93.30;98710.50;4857678;29;20424;-59
2023/08/24 04:17:14;;;;;;;7.78;4.80;;;;;;;14.16;92.62;98712.09;4857533;29;20054;-57
2023/08/24 04:19:40;;;;;;;7.03;4.88;;;;;;;14.19;92.07;98713.41;4859075;29;20045;-56
2023/08/24 04:22:06;;;;;;;6.57;5.25;;;;;;;14.21;92.54;98708.59;4857493;29;20057;-58
2023/08/24 04:24:31;;;;;;;7.68;5.13;;;;;;;14.26;92.21;98713.88;4858789;29;20054;-59
2023/08/24 04:26:57;;;;;;;7.25;4.95;;;;;;;14.29;92.14;98708.81;4858529;29;20072;-58
2023/08/24 04:29:23;;;;;;;7.18;5.45;;;;;;;14.26;91.99;98706.66;4857454;29;20042;-59
2023/08/24 04:31:48;;;;;;;8.27;5.57;;;;;;;14.25;92.48;98710.41;4860625;29;20140;-57
2023/08/24 04:34:14;;;;;;;7.90;6.18;;;;;;;14.29;92.22;98715.97;4862355;29;20045;-60
2023/08/24 04:36:39;;;;;;;8.85;5.63;;;;;;;14.23;91.79;98701.91;4860770;29;20101;-58
2023/08/24 04:39:05;;;;;;;8.52;6.25;;;;;;;14.24;92.27;98708.03;4861878;29;20045;-58
2023/08/24 04:41:31;;;;;;;8.30;5.70;;;;;;;14.26;92.30;98709.34;4861855;29;20049;-57
2023/08/24 04:43:56;;;;;;;10.95;6.07;;;;;;;14.27;91.58;98716.28;4842091;29;20053;-59
2023/08/24 04:46:22;;;;;;;7.43;5.72;;;;;;;14.27;91.72;98718.16;4842007;29;20093;-58
2023/08/24 04:48:48;;;;;;;9.10;5.63;;;;;;;14.31;90.99;98725.31;4842437;29;20079;-57
2023/08/24 04:51:13;;;;;;;10.50;5.97;;;;;;;14.33;90.94;98727.69;4843267;29;20037;-58
2023/08/24 04:53:39;;;;;;;7.72;5.50;;;;;;;14.32;90.85;98723.44;4843464;29;20073;-57
2023/08/24 04:56:04;;;;;;;9.32;5.88;;;;;;;14.28;90.17;98730.41;4843290;29;20539;-60
2023/08/24 04:58:30;;;;;;;9.27;6.05;;;;;;;14.25;90.60;98718.41;4843588;29;20236;-58
2023/08/24 05:00:56;;;;;;;9.88;6.07;;;;;;;14.31;91.06;98733.31;4845925;29;20136;-59
2023/08/24 05:03:21;;;;;;;9.70;6.32;;;;;;;14.27;89.82;98718.94;4862067;29;20064;-58
2023/08/24 05:05:47;;;;;;;9.23;5.82;;;;;;;14.26;89.38;98728.00;4861721;29;20048;-60
2023/08/24 05:08:13;;;;;;;10.98;6.40;;;;;;;14.32;90.09;98726.09;4861952;29;20049;-58
2023/08/24 05:10:39;;;;;;;8.70;6.32;;;;;;;14.34;90.08;98726.63;4861718;29;20136;-59
2023/08/24 05:13:05;;;;;;;9.73;6.65;;;;;;;14.38;89.87;98726.84;4859665;29;20076;-59
2023/08/24 05:15:31;;;;;;;11.48;6.03;;;;;;;14.41;90.04;98720.97;4861352;29;20038;-60
2023/08/24 05:17:59;;;;;;;9.60;6.93;;;;;;;14.39;90.24;98723.91;4861520;29;20552;-58
2023/08/24 05:20:28;;;;;;;9.13;6.57;;;;;;;14.46;90.02;98735.06;4845043;29;20122;-59
2023/08/24 05:22:54;;;;;;;12.13;6.70;;;;;;;14.41;88.94;98719.13;4860148;29;20042;-59
2023/08/24 05:25:21;;;;;;;10.50;6.70;;;;;;;14.52;88.92;98723.31;4861174;29;20054;-60
2023/08/24 05:27:47;;;;;;;10.30;6.85;;;;;;;14.47;88.51;98730.50;4861525;29;20045;-59
2023/08/24 05:30:13;;;;;;;10.25;7.38;;;;;;;14.46;89.24;98723.59;4861108;29;20075;-60
2023/08/24 05:32:39;;;;;;;10.57;7.13;;;;;;;14.48;88.88;98724.91;4859863;29;20053;-59
2023/08/24 05:35:05;;;;;;;11.98;7.38;;;;;;;14.55;88.17;98719.28;4858840;29;20049;-58
2023/08/24 05:37:31;;;;;;;12.82;7.18;;;;;;;14.49;87.93;98721.16;4859831;29;20374;-58
2023/08/24 05:39:56;;;;;;;8.32;6.28;;;;;;;14.52;88.18;98725.19;4861286;29;20049;-60
2023/08/24 05:42:22;;;;;;;8.80;6.25;;;;;;;14.54;87.79;98721.16;4860516;29;20049;-57
2023/08/24 05:44:48;;;;;;;8.65;6.45;;;;;;;14.54;87.47;98725.69;4861179;29;20416;-62
2023/08/24 05:47:13;;;;;;;9.60;6.88;;;;;;;14.46;87.48;98727.06;4860955;29;20045;-60
2023/08/24 05:49:39;;;;;;;11.13;6.03;;;;;;;14.40;88.00;98728.16;4859595;29;20503;-61
2023/08/24 05:52:05;;;;;;;7.38;6.05;;;;;;;14.43;87.41;98727.63;4844107;29;20416;-58
2023/08/24 05:54:30;;;;;;;10.23;6.00;;;;;;;14.43;86.93;98730.28;4860595;29;20059;-62
2023/08/24 05:57:00;;;;;;;7.45;5.35;;;;;;;14.41;87.30;98739.63;4858925;29;20082;-60
2023/08/24 05:59:26;;;;;;;7.50;5.63;;;;;;;14.25;88.44;98745.06;4860971;29;20579;-60
2023/08/24 06:01:52;;;;;;;6.40;5.05;;;;;;;14.27;87.79;98742.16;4860201;29;20538;-59
2023/08/24 06:04:18;;;;;;;6.70;5.15;;;;;;;14.25;88.21;98745.06;4843802;29;20045;-61
2023/08/24 06:06:44;;;;;;;10.65;5.60;;;;;;;14.22;89.07;98750.16;4860387;29;20676;-59
2023/08/24 06:09:10;;;;;;;8.30;5.03;;;;;;;14.25;89.58;98754.94;4860176;29;20431;-60
2023/08/24 06:11:36;;;;;;;12.90;5.60;;;;;;;14.29;89.24;98756.78;4859950;29;20042;-59
2023/08/24 06:14:02;;;;;;;8.55;5.80;;;;;;;14.28;88.07;98762.38;4858739;29;20065;-59
2023/08/24 06:16:28;;;;;;;9.43;5.80;;;;;;;14.26;88.08;98765.31;4860133;29;20069;-58
2023/08/24 06:18:54;;;;;;;7.25;5.68;;;;;;;14.23;88.28;98763.19;4859541;29;20044;-59
2023/08/24 06:21:20;;;;;;;7.32;5.82;;;;;;;14.22;88.99;98766.16;4860172;29;20053;-60
2023/08/24 06:23:47;;;;;;;12.45;6.63;;;;;;;14.23;88.78;98765.06;4861678;29;20164;-58
2023/08/24 06:26:13;;;;;;;9.80;5.93;;;;;;;14.30;89.47;98768.25;4867615;29;20077;-59
2023/08/24 06:28:39;;;;;;;10.30;6.40;;;;;;;14.24;88.36;98766.69;4865239;29;20376;-58
2023/08/24 06:31:07;;;;;;;7.90;5.75;;;;;;;14.21;87.61;98769.91;4861041;29;20087;-58
2023/08/24 06:33:37;;;;;;;10.77;6.00;;;;;;;14.15;87.40;98763.00;4863896;29;20061;-58
2023/08/24 06:36:07;;;;;;;;;;;;;;;14.15;86.68;98765.66;4859326;29;20101;-58
2023/08/24 06:38:33;;;;;;;7.45;5.28;;;;;;;14.13;86.88;98767.81;4859818;29;20330;-57
2023/08/24 06:40:59;;;;;;;8.02;5.05;;;;;;;14.19;86.83;98774.72;4858525;29;20045;-59
2023/08/24 06:43:26;;;;;;;6.25;4.95;;;;;;;14.19;86.58;98772.03;4857779;29;20045;-59
2023/08/24 06:45:51;;;;;;;8.15;5.20;;;;;;;14.15;87.03;98781.66;4859571;29;20034;-60
2023/08/24 06:48:17;;;;;;;7.68;4.78;;;;;;;14.16;87.17;98783.25;4858445;29;20424;-57
2023/08/24 06:50:43;;;;;;;7.93;4.85;;;;;;;14.11;87.01;98784.06;4859250;29;20052;-60
2023/08/24 06:53:09;;;;;;;7.93;4.55;;;;;;;14.16;86.02;98784.06;4858956;29;20045;-59
2023/08/24 06:55:36;;;;;;;5.75;4.40;;;;;;;14.11;85.66;98781.41;4859336;29;20416;-60
2023/08/24 06:58:04;;;;;;;6.70;4.30;;;;;;;14.18;85.90;98783.78;4827708;29;20104;-57
2023/08/24 07:00:31;;;;;;;5.90;4.60;;;;;;;14.21;86.12;98792.03;4857740;29;20042;-59
2023/08/24 07:02:57;;;;;;;6.22;5.13;;;;;;;14.19;86.05;98790.69;4858259;29;20511;-58
2023/08/24 07:05:23;;;;;;;5.70;4.40;;;;;;;14.13;86.16;98783.81;4863186;29;20054;-61
2023/08/24 07:07:52;;;;;;;5.63;4.60;;;;;;;14.10;86.15;98793.16;4859246;29;20053;-57
2023/08/24 07:10:17;;;;;;;5.45;4.40;;;;;;;14.14;85.46;98790.72;4856946;29;20048;-58
2023/08/24 07:12:44;;;;;;;4.63;4.13;;;;;;;14.24;85.83;98793.34;4858904;29;20065;-58
2023/08/24 07:15:11;;;;;;;6.57;5.28;;;;;;;14.25;85.51;98785.06;4856631;29;20049;-58
2023/08/24 07:17:37;;;;;;;6.47;4.38;;;;;;;14.26;86.08;98799.19;4839522;29;20243;-58
2023/08/24 07:20:08;;;;;;;6.38;4.65;;;;;;;14.24;85.86;98785.34;4859504;29;20075;-57
2023/08/24 07:22:34;;;;;;;6.65;4.50;;;;;;;14.20;85.15;98790.41;4858756;29;20511;-56
2023/08/24 07:25:01;;;;;;;5.15;4.35;;;;;;;14.26;85.07;98796.50;4842136;29;20190;-56
2023/08/24 07:27:28;;;;;;;7.38;4.30;;;;;;;14.28;85.53;98800.50;4858322;29;20041;-57
2023/08/24 07:29:54;;;;;;;11.23;6.72;;;;;;;14.30;86.12;98797.56;4858881;29;20048;-53
2023/08/24 07:32:19;;;;;;;13.75;7.47;;;;;;;14.26;85.46;98807.19;4857256;29;20460;-55
2023/08/24 07:34:45;;;;;;;7.03;4.82;;;;;;;14.24;85.34;98814.66;4858800;29;20161;-55
2023/08/24 07:37:10;;;;;;;5.88;4.45;;;;;;;14.29;85.31;98814.63;4858582;29;20046;-58
2023/08/24 07:39:38;;;;;;;6.57;4.47;;;;;;;14.34;85.22;98814.59;4858911;29;20086;-59
2023/08/24 07:42:03;;;;;;;6.97;4.28;;;;;;;14.41;84.56;98820.44;4858481;29;20045;-58
2023/08/24 07:44:30;;;;;;;7.80;4.57;;;;;;;14.48;83.26;98815.59;4858819;29;20049;-58
2023/08/24 07:46:56;;;;;;;7.05;4.50;;;;;;;14.60;82.65;98817.16;4857434;29;20081;-58
2023/08/24 07:49:21;;;;;;;6.28;4.20;;;;;;;14.61;82.09;98808.84;4858431;29;20103;-59
2023/08/24 07:51:47;;;;;;;7.88;4.25;;;;;;;14.79;80.76;98817.25;4858161;29;20045;-52
2023/08/24 07:54:13;;;;;;;6.10;4.10;;;;;;;14.88;80.54;98820.91;4857402;29;20050;-56
2023/08/24 07:56:38;;;;;;;6.57;4.20;;;;;;;14.92;80.15;98816.63;4858599;29;20094;-57
2023/08/24 07:59:04;;;;;;;4.63;3.70;;;;;;;15.03;79.37;98823.50;4858487;29;20045;-58
2023/08/24 08:01:30;;;;;;;5.43;3.90;;;;;;;15.10;78.95;98817.81;4858719;29;20046;-56
2023/08/24 08:03:56;;;;;;;5.13;3.60;;;;;;;15.13;78.55;98818.03;4858217;29;20049;-56
2023/08/24 08:06:24;;;;;;;5.82;4.15;;;;;;;15.20;79.20;98825.72;4861099;29;20056;-60
2023/08/24 08:08:51;;;;;;;5.60;4.40;;;;;;;15.28;78.28;98827.00;4862138;29;20381;-57
2023/08/24 08:11:17;;;;;;;5.50;3.97;;;;;;;15.17;77.79;98813.72;4845878;29;20132;-59
2023/08/24 08:13:42;;;;;;;4.07;3.50;;;;;;;15.21;78.06;98822.00;4861791;29;20156;-58
2023/08/24 08:16:08;;;;;;;4.20;3.33;;;;;;;15.29;76.88;98815.22;4862164;29;20048;-60
2023/08/24 08:18:35;;;;;;;6.25;3.95;;;;;;;15.41;76.52;98821.78;4862194;29;20114;-58
2023/08/24 08:21:02;;;;;;;6.70;3.95;;;;;;;15.39;76.59;98823.16;4860985;29;20534;-57
2023/08/24 08:23:27;;;;;;;6.20;4.03;;;;;;;15.16;77.58;98816.69;4862374;29;20045;-56
2023/08/24 08:25:53;;;;;;;5.00;4.35;;;;;;;15.07;77.83;98819.16;4861983;29;20050;-60
2023/08/24 08:28:19;;;;;;;7.50;4.32;;;;;;;15.05;78.30;98831.19;4860459;29;20492;-59
2023/08/24 08:30:45;;;;;;;6.75;4.05;;;;;;;14.90;78.18;98830.25;4861395;29;20053;-60
2023/08/24 08:33:10;;;;;;;6.47;3.92;;;;;;;14.83;77.93;98831.66;4860483;29;20512;-56
2023/08/24 08:35:38;;;;;;;6.22;4.60;;;;;;;14.90;78.56;98829.44;4861562;29;20045;-59
2023/08/24 08:38:05;;;;;;;5.82;4.38;;;;;;;15.03;78.59;98825.34;4862039;29;20145;-57
2023/08/24 08:40:31;;;;;;;5.80;3.80;;;;;;;15.04;78.38;98821.63;4829580;29;20508;-58
2023/08/24 08:42:58;;;;;;;6.38;3.78;;;;;;;15.05;77.59;98820.53;4862070;29;20041;-56
2023/08/24 08:45:28;;;;;;;4.97;3.80;;;;;;;15.08;76.78;98811.94;4861486;29;20037;-56
2023/08/24 08:47:58;;;;;;;5.95;3.67;;;;;;;15.27;76.47;98820.06;4861592;29;20456;-57
2023/08/24 08:50:25;;;;;;;7.30;3.72;;;;;;;15.46;75.74;98818.25;4861372;29;20046;-56
2023/08/24 08:52:51;;;;;;;6.45;4.07;;;;;;;15.62;74.47;98806.34;4861867;29;20072;-58
2023/08/24 08:55:17;;;;;;;5.18;4.20;;;;;;;15.87;73.42;98810.59;4861160;29;20085;-58
2023/08/24 08:57:43;;;;;;;6.15;4.78;;;;;;;16.07;72.23;98816.78;4860482;29;20409;-59
2023/08/24 09:00:16;;;;;;;5.82;4.05;;;;;;;16.08;71.88;98823.72;4860035;29;20101;-58
2023/08/24 09:02:46;;;;;;;6.63;4.43;;;;;;;16.09;71.65;98830.69;4861744;29;20056;-57
2023/08/24 09:05:12;;;;;;;6.10;4.37;;;;;;;16.32;71.64;98823.66;4844631;29;20053;-57
2023/08/24 09:07:41;;;;;;;6.18;4.38;;;;;;;16.56;69.71;98820.94;4861822;29;20659;-57
2023/08/24 09:10:08;;;;;;;6.43;3.20;;;;;;;16.64;68.87;98824.81;4861103;29;20037;-56
2023/08/24 09:12:34;;;;;;;5.22;3.58;;;;;;;16.87;67.98;98823.97;4860110;29;20069;-56
2023/08/24 09:15:03;;;;;;;5.50;3.63;;;;;;;16.98;67.56;98828.06;4861432;29;20052;-58
2023/08/24 09:17:29;;;;;;;5.10;3.33;;;;;;;16.91;68.36;98835.69;4860861;29;20052;-59
2023/08/24 09:19:58;;;;;;;4.53;2.92;;;;;;;16.94;67.44;98840.47;4861552;29;20397;-58
2023/08/24 09:22:24;;;;;;;4.70;2.65;;;;;;;17.07;65.61;98832.75;4842811;29;20061;-57
2023/08/24 09:24:50;;;;;;;5.53;2.88;;;;;;;17.15;65.49;98845.47;4842767;29;20042;-59
2023/08/24 09:27:20;;;;;;;4.88;3.03;;;;;;;17.06;65.95;98841.84;4858651;29;20049;-60
2023/08/24 09:29:52;;;;;;;5.70;3.13;;;;;;;17.11;66.26;98836.41;4861074;29;20574;-55
2023/08/24 09:32:23;;;;;;;4.32;3.13;;;;;;;17.10;66.05;98848.22;4860736;29;20046;-57
2023/08/24 09:34:49;;;;;;;3.88;3.10;;;;;;;16.95;66.70;98846.59;4859844;29;20048;-56
2023/08/24 09:37:15;;;;;;;3.42;3.10;;;;;;;16.95;67.15;98849.28;4860545;29;20049;-57
2023/08/24 09:39:41;;;;;;;5.15;3.20;;;;;;;16.84;67.65;98851.31;4859782;29;20046;-59
2023/08/24 09:42:07;;;;;;;3.33;2.97;;;;;;;16.81;67.46;98854.56;4859254;29;20103;-57
2023/08/24 09:44:33;;;;;;;3.65;3.10;;;;;;;16.71;67.52;98854.72;4860559;29;20053;-59
2023/08/24 09:46:59;;;;;;;3.70;3.00;;;;;;;16.64;67.50;98852.38;4859692;29;20121;-55
2023/08/24 09:49:26;;;;;;;4.55;3.08;;;;;;;16.51;67.50;98866.50;4859848;29;20053;-58
2023/08/24 09:51:56;;;;;;;3.67;2.72;;;;;;;16.46;68.21;98850.50;4857908;29;20054;-58
2023/08/24 09:54:22;;;;;;;4.07;3.13;;;;;;;16.51;68.18;98858.47;4858370;29;20076;-61
2023/08/24 09:56:48;;;;;;;3.75;3.35;;;;;;;16.40;68.99;98862.34;4858120;29;20053;-57
2023/08/24 09:59:17;;;;;;;3.50;2.88;;;;;;;16.45;68.38;98860.41;4858305;29;20045;-60
2023/08/24 10:01:47;;;;;;;4.22;3.30;;;;;;;16.37;68.25;98866.41;4842566;29;20041;-59
2023/08/24 10:04:14;;;;;;;3.80;3.00;;;;;;;16.40;68.18;98859.69;4843283;29;20064;-56
2023/08/24 10:06:40;;;;;;;4.75;3.20;;;;;;;16.23;68.08;98855.59;4857642;29;20048;-61
2023/08/24 10:09:22;;;;;;;3.85;3.45;;;;;;;16.31;67.22;98852.28;4859348;29;20089;-60
2023/08/24 10:11:56;;;;;;;3.83;3.10;;;;;;;16.25;67.52;98853.44;4858857;29;20056;-58
2023/08/24 10:14:31;;;;;;;7.88;3.72;;;;;;;16.08;68.02;98855.81;4859237;29;20083;-58
2023/08/24 10:16:57;;;;;;;3.58;3.10;;;;;;;16.09;67.66;98854.75;4859002;29;20057;-60
2023/08/24 10:19:23;;;;;;;3.85;3.17;;;;;;;15.99;67.91;98854.84;4842545;29;20065;-57
2023/08/24 10:21:53;;;;;;;4.93;3.10;;;;;;;16.02;67.85;98857.75;4855639;29;20401;-60
2023/08/24 10:24:21;;;;;;;3.30;2.97;;;;;;;16.06;67.56;98855.28;4842736;29;20081;-59
2023/08/24 10:26:47;;;;;;;5.60;3.20;;;;;;;16.19;67.71;98859.16;4854517;29;20523;-57
2023/08/24 10:29:13;;;;;;;3.97;2.90;;;;;;;16.25;66.70;98858.00;4857271;29;20535;-55
2023/08/24 10:31:40;;;;;;;4.35;3.15;;;;;;;16.39;66.53;98861.56;4858756;29;20038;-59
2023/08/24 10:34:07;;;;;;;4.50;3.17;;;;;;;16.52;65.57;98855.47;4859409;29;20041;-56
2023/08/24 10:36:34;;;;;;;3.97;2.90;;;;;;;16.61;65.18;98855.63;4859224;29;20055;-57
2023/08/24 10:39:05;;;;;;;3.08;2.75;;;;;;;16.87;64.94;98856.06;4857795;29;20128;-57
2023/08/24 10:41:46;;;;;;;4.55;3.05;;;;;;;16.88;63.51;98871.03;4859687;29;20136;-59
2023/08/24 10:44:21;;;;;;;3.78;2.88;;;;;;;16.97;63.26;98865.81;4859414;29;20041;-56
2023/08/24 10:47:23;;;;;;;4.13;2.85;;;;;;;16.76;63.56;98860.78;4858706;29;20109;-57
2023/08/24 10:49:55;;;;;;;3.15;2.70;;;;;;;16.77;63.50;98861.59;4840635;29;20046;-59
2023/08/24 10:52:21;;;;;;;3.63;3.08;;;;;;;16.86;64.05;98859.84;4841970;29;20394;-56
2023/08/24 10:54:49;;;;;;;4.38;2.47;;;;;;;16.88;64.25;98862.22;4858570;29;20106;-56
2023/08/24 10:57:23;;;;;;;4.55;2.42;;;;;;;16.96;64.57;98873.06;4858247;29;20057;-58
2023/08/24 10:59:59;;;;;;;5.20;3.00;;;;;;;17.09;63.89;98860.84;4841373;29;20045;-59
2023/08/24 11:02:25;;;;;;;5.13;3.25;;;;;;;17.24;63.92;98863.25;4841199;29;20046;-57
2023/08/24 11:05:05;;;;;;;3.67;2.45;;;;;;;17.23;62.28;98872.34;4856606;29;20511;-57
2023/08/24 11:07:31;;;;;;;3.67;2.90;;;;;;;17.21;61.56;98868.41;4859518;29;20049;-59
2023/08/24 11:09:56;;;;;;;2.40;2.20;;;;;;;17.18;61.53;98866.31;4859190;29;20574;-58
2023/08/24 11:12:22;;;;;;;2.67;2.38;;;;;;;17.11;62.86;98872.03;4858925;29;20138;-58
2023/08/24 11:14:54;;;;;;;3.75;2.80;;;;;;;17.10;63.32;98862.41;4858794;29;20042;-57
2023/08/24 11:17:21;;;;;;;3.88;2.83;;;;;;;17.10;62.54;98870.44;4858084;29;20054;-57
2023/08/24 11:19:51;;;;;;;3.95;2.90;;;;;;;17.03;62.90;98873.50;4858814;29;20053;-58
2023/08/24 11:22:21;;;;;;;4.72;2.95;;;;;;;16.91;63.55;98867.00;4858745;29;20140;-58
2023/08/24 11:24:47;;;;;;;4.35;2.90;;;;;;;16.86;63.96;98872.44;4857532;29;20404;-56
2023/08/24 11:27:13;;;;;;;2.95;2.45;;;;;;;16.88;64.56;98860.34;4857906;29;20084;-57
2023/08/24 11:29:38;;;;;;;3.47;2.63;;;;;;;17.06;64.51;98874.81;4858019;29;20460;-59